Time;durP1;ratioP1;P1;durP2;ratioP2;P2;SDS_P1;SDS_P2;PMS_P1;PMS_P2;Temp;Humidity;BMP_temperature;BMP_pressure;BME280_temperature;BME280_humidity;BME280_pressure;Samples;Min_cycle;Max_cycle;Signal;HPM_P1;HPM_P2
2022/06/24 00:01:59;;;;;;;6.72;6.15;;;;;;;22.00;69.89;100758.16;4844168;29;20269;-81
2022/06/24 00:04:27;;;;;;;6.03;5.63;;;;;;;22.01;70.15;100759.81;4880896;29;20044;-81
2022/06/24 00:06:53;;;;;;;7.63;6.13;;;;;;;22.00;69.42;100760.81;4864488;29;20033;-81
2022/06/24 00:09:19;;;;;;;6.25;5.65;;;;;;;21.99;69.71;100762.66;4883343;29;20208;-81
2022/06/24 00:11:45;;;;;;;6.57;6.05;;;;;;;21.99;69.54;100752.00;4880939;29;20044;-82
2022/06/24 00:14:15;;;;;;;9.18;6.47;;;;;;;21.98;69.56;100755.63;4882742;29;20072;-82
2022/06/24 00:17:08;;;;;;;11.25;6.85;;;;;;;21.98;70.02;100758.28;4866422;29;20147;-81
2022/06/24 00:19:50;;;;;;;7.60;6.47;;;;;;;21.98;69.61;100763.63;4861158;29;20057;-81
2022/06/24 00:22:16;;;;;;;8.00;6.63;;;;;;;21.97;70.06;100761.91;4876000;29;20032;-81
2022/06/24 00:24:41;;;;;;;10.93;7.28;;;;;;;21.96;70.28;100765.59;4866229;29;20270;-81
2022/06/24 00:27:22;;;;;;;7.10;6.50;;;;;;;21.94;70.41;100770.22;4849155;29;20037;-81
2022/06/24 00:29:49;;;;;;;8.00;7.15;;;;;;;21.93;70.85;100792.50;4859877;29;20060;-81
2022/06/24 00:32:16;;;;;;;12.98;8.45;;;;;;;21.92;71.35;100795.31;4845679;29;20057;-81
2022/06/24 00:34:41;;;;;;;15.20;8.85;;;;;;;21.90;71.50;100808.78;4864430;29;20029;-82
2022/06/24 00:37:28;;;;;;;16.15;10.45;;;;;;;21.88;72.48;100807.22;4861810;29;20109;-81
2022/06/24 00:40:09;;;;;;;18.73;11.63;;;;;;;21.87;73.22;100819.72;4858456;29;20041;-81
2022/06/24 00:42:46;;;;;;;17.27;11.07;;;;;;;21.85;73.95;100829.69;4873026;29;20060;-82
2022/06/24 00:45:41;;;;;;;21.25;11.57;;;;;;;21.80;74.71;100830.09;4876071;29;20351;-82
2022/06/24 00:48:14;;;;;;;19.42;12.60;;;;;;;21.77;75.05;100825.00;4859847;29;20490;-82
2022/06/24 00:50:45;;;;;;;13.65;12.00;;;;;;;21.73;75.37;100820.09;4866551;29;20051;-82
2022/06/24 00:53:11;;;;;;;16.80;11.15;;;;;;;21.70;75.59;100837.19;4863785;29;20093;-81
2022/06/24 00:55:38;;;;;;;13.05;11.50;;;;;;;21.67;75.94;100854.31;4866078;29;20112;-81
2022/06/24 00:58:05;;;;;;;15.82;12.02;;;;;;;21.65;76.48;100858.09;4864618;29;20041;-82
2022/06/24 01:00:33;;;;;;;13.70;11.80;;;;;;;21.62;76.52;100864.53;4853968;29;20278;-82
2022/06/24 01:03:00;;;;;;;17.90;12.25;;;;;;;21.58;76.65;100867.59;4847251;29;20037;-81
2022/06/24 01:05:27;;;;;;;15.60;12.20;;;;;;;21.57;77.07;100871.22;4845742;29;20096;-81
2022/06/24 01:07:53;;;;;;;16.65;11.48;;;;;;;21.52;77.35;100863.66;4846721;29;20037;-82
2022/06/24 01:10:18;;;;;;;16.92;12.15;;;;;;;21.51;77.79;100855.78;4866958;29;20049;-82
2022/06/24 01:12:44;;;;;;;15.88;12.40;;;;;;;21.50;77.65;100854.09;4859704;29;20086;-81
2022/06/24 01:15:09;;;;;;;15.20;12.32;;;;;;;21.47;77.89;100840.06;4828983;29;20056;-82
2022/06/24 01:17:37;;;;;;;17.27;12.57;;;;;;;21.45;78.07;100858.00;4863418;29;20115;-81
2022/06/24 01:20:07;;;;;;;18.20;12.43;;;;;;;21.44;78.26;100874.06;4895750;29;20048;-82
2022/06/24 01:22:33;;;;;;;14.30;10.68;;;;;;;21.42;78.66;100884.03;4898506;29;20072;-82
2022/06/24 01:24:58;;;;;;;14.77;10.57;;;;;;;21.39;78.60;100874.50;4884282;29;20260;-81
2022/06/24 01:27:24;;;;;;;12.73;9.85;;;;;;;21.36;78.55;100877.41;4865768;29;20059;-82
2022/06/24 01:29:49;;;;;;;11.32;9.98;;;;;;;21.34;78.72;100867.84;4895193;29;20115;-81
2022/06/24 01:32:15;;;;;;;14.93;10.23;;;;;;;21.33;78.75;100871.50;4881969;29;20041;-81
2022/06/24 01:34:40;;;;;;;11.13;8.93;;;;;;;21.31;78.69;100860.13;4884121;29;20052;-82
2022/06/24 01:37:06;;;;;;;9.27;7.97;;;;;;;21.28;78.77;100856.75;4882244;29;20049;-82
2022/06/24 01:39:31;;;;;;;9.25;7.88;;;;;;;21.26;78.45;100852.53;4871366;29;20044;-82
2022/06/24 01:41:57;;;;;;;11.43;8.23;;;;;;;21.24;78.30;100849.16;4889595;29;20045;-81
2022/06/24 01:44:23;;;;;;;8.02;7.20;;;;;;;21.23;78.73;100836.84;4883342;29;20033;-81
2022/06/24 01:46:49;;;;;;;9.75;6.13;;;;;;;21.22;78.47;100827.13;4874842;29;20039;-82
2022/06/24 01:49:15;;;;;;;6.35;5.57;;;;;;;21.21;78.62;100812.13;4893318;29;20041;-81
2022/06/24 01:51:43;;;;;;;6.05;4.95;;;;;;;21.16;78.56;100769.94;4867980;29;20068;-82
2022/06/24 01:54:09;;;;;;;5.25;4.35;;;;;;;21.12;78.48;100747.22;4885351;29;20021;-81
2022/06/24 01:56:34;;;;;;;4.38;3.72;;;;;;;21.08;78.58;100733.31;4881081;29;20092;-82
2022/06/24 01:59:00;;;;;;;4.50;3.00;;;;;;;21.03;77.93;100743.53;4882101;29;20040;-82
2022/06/24 02:01:25;;;;;;;3.72;3.30;;;;;;;21.01;77.61;100765.91;4882096;29;20049;-81
2022/06/24 02:03:51;;;;;;;5.30;4.15;;;;;;;20.99;77.99;100763.41;4880337;29;20048;-82
2022/06/24 02:06:17;;;;;;;5.60;3.35;;;;;;;20.98;77.99;100760.88;4881786;29;20108;-82
2022/06/24 02:08:43;;;;;;;5.30;3.28;;;;;;;20.97;78.09;100767.16;4869023;29;20379;-81
2022/06/24 02:13:56;;;;;;;6.95;3.92;;;;;;;20.89;78.38;100751.84;4871259;29;20088;-81
2022/06/24 02:16:21;;;;;;;4.82;4.40;;;;;;;20.84;78.96;100751.41;4882313;29;20102;-81
2022/06/24 02:18:47;;;;;;;7.47;4.78;;;;;;;20.79;79.25;100743.81;4853509;29;20053;-81
2022/06/24 02:21:13;;;;;;;5.15;4.63;;;;;;;20.76;79.60;100752.06;4896257;29;20111;-81
2022/06/24 02:23:39;;;;;;;6.35;4.88;;;;;;;20.75;79.43;100750.34;4884507;29;20028;-82
2022/06/24 02:26:05;;;;;;;5.60;4.57;;;;;;;20.74;79.50;100740.72;4886870;29;20248;-81
2022/06/24 02:28:30;;;;;;;4.78;4.25;;;;;;;20.73;79.71;100738.16;4868389;29;20037;-81
2022/06/24 02:30:58;;;;;;;4.57;4.18;;;;;;;20.73;79.46;100735.50;4852935;29;20051;-82
2022/06/24 02:33:25;;;;;;;9.85;5.25;;;;;;;20.70;79.74;100728.63;4883566;29;20111;-81
2022/06/24 02:35:50;;;;;;;5.40;4.95;;;;;;;20.65;80.11;100715.72;4884949;29;20032;-81
2022/06/24 02:38:16;;;;;;;6.30;5.07;;;;;;;20.60;80.39;100717.06;4853277;29;20055;-81
2022/06/24 02:40:48;;;;;;;8.95;5.13;;;;;;;20.58;80.75;100724.31;4885555;29;20053;-81
2022/06/24 02:43:34;;;;;;;5.15;4.70;;;;;;;20.56;80.36;100718.31;4889386;29;20221;-81
2022/06/24 02:46:05;;;;;;;5.32;4.93;;;;;;;20.56;80.55;100713.81;4897524;29;20068;-81
2022/06/24 02:48:33;;;;;;;5.50;4.57;;;;;;;20.56;80.49;100687.22;4901895;29;20052;-82
2022/06/24 02:51:03;;;;;;;6.75;5.05;;;;;;;20.55;80.38;100693.50;4884822;29;20040;-82
2022/06/24 02:53:29;;;;;;;5.50;4.97;;;;;;;20.55;80.42;100700.63;4886702;29;20104;-82
2022/06/24 02:56:06;;;;;;;8.02;4.60;;;;;;;20.52;80.46;100699.09;4884320;29;20037;-81
2022/06/24 02:58:32;;;;;;;4.40;4.10;;;;;;;20.52;80.23;100691.94;4885084;29;20092;-82
2022/06/24 03:00:58;;;;;;;8.30;4.57;;;;;;;20.51;80.22;100682.25;4884765;29;20332;-83
2022/06/24 03:03:24;;;;;;;11.70;4.95;;;;;;;20.51;80.11;100692.91;4886130;29;20354;-83
2022/06/24 03:05:50;;;;;;;3.90;3.60;;;;;;;20.50;78.84;100704.53;4849798;29;20037;-83
2022/06/24 03:08:21;;;;;;;7.28;4.78;;;;;;;20.50;78.72;100723.16;4865218;29;20045;-83
2022/06/24 03:10:47;;;;;;;8.27;4.88;;;;;;;20.50;79.04;100733.81;4893934;29;20303;-83
2022/06/24 03:13:12;;;;;;;5.65;4.00;;;;;;;20.51;78.90;100745.28;4870969;29;20050;-84
2022/06/24 03:15:38;;;;;;;8.45;4.13;;;;;;;20.49;78.54;100742.75;4864250;29;20056;-83
2022/06/24 03:18:04;;;;;;;5.63;4.97;;;;;;;20.49;78.55;100745.41;4903087;29;20059;-84
2022/06/24 03:20:30;;;;;;;4.53;4.13;;;;;;;20.49;77.67;100749.88;4897435;29;20033;-83
2022/06/24 03:22:55;;;;;;;5.38;4.35;;;;;;;20.48;77.69;100741.06;4871919;29;20261;-83
2022/06/24 03:25:21;;;;;;;5.55;3.85;;;;;;;20.48;76.95;100740.19;4858602;29;20336;-83
2022/06/24 03:27:46;;;;;;;9.43;4.03;;;;;;;20.47;76.88;100738.53;4876042;29;20057;-83
2022/06/24 03:30:13;;;;;;;4.45;3.53;;;;;;;20.47;76.90;100742.03;4882871;29;20037;-83
2022/06/24 03:32:39;;;;;;;5.50;5.00;;;;;;;20.47;76.98;100743.84;4878308;29;20080;-83
2022/06/24 03:35:05;;;;;;;5.50;5.00;;;;;;;20.46;77.25;100724.38;4883365;29;20033;-83
2022/06/24 03:37:31;;;;;;;6.78;5.47;;;;;;;20.46;77.14;100719.03;4878067;29;20041;-83
2022/06/24 03:39:58;;;;;;;6.25;5.38;;;;;;;20.46;77.65;100712.91;4882889;29;20057;-83
2022/06/24 03:42:23;;;;;;;8.02;6.95;;;;;;;20.46;77.90;100705.75;4885104;29;20312;-83
2022/06/24 03:44:49;;;;;;;10.20;8.35;;;;;;;20.45;78.51;100704.06;4885041;29;20036;-83
2022/06/24 03:47:14;;;;;;;8.32;7.53;;;;;;;20.43;79.27;100698.06;4888479;29;20098;-83
2022/06/24 03:49:40;;;;;;;9.52;7.90;;;;;;;20.43;79.49;100687.41;4894103;29;20331;-83
2022/06/24 03:52:06;;;;;;;14.00;9.95;;;;;;;20.42;79.77;100680.38;4873762;29;20220;-83
2022/06/24 03:54:31;;;;;;;13.10;9.73;;;;;;;20.41;80.30;100677.84;4881962;29;20041;-83
2022/06/24 03:56:57;;;;;;;13.13;10.85;;;;;;;20.39;80.27;100683.34;4868798;29;20048;-83
2022/06/24 03:59:22;;;;;;;13.27;11.27;;;;;;;20.38;80.28;100694.09;4901913;29;20035;-83
2022/06/24 04:01:48;;;;;;;13.20;10.90;;;;;;;20.37;80.21;100690.56;4889976;29;20232;-83
2022/06/24 04:04:13;;;;;;;12.27;10.98;;;;;;;20.37;80.45;100693.22;4880161;29;20052;-83
2022/06/24 04:06:38;;;;;;;14.95;11.60;;;;;;;20.35;80.71;100689.84;4840151;29;20077;-83
2022/06/24 04:09:04;;;;;;;14.25;12.75;;;;;;;20.35;80.64;100687.19;4880533;29;20061;-83
2022/06/24 04:11:30;;;;;;;16.80;15.00;;;;;;;20.30;81.96;100687.59;4872226;29;20328;-83
2022/06/24 04:13:55;;;;;;;16.27;13.38;;;;;;;20.29;82.37;100687.72;4883354;29;20081;-83
2022/06/24 04:16:20;;;;;;;16.38;13.38;;;;;;;20.24;82.57;100680.13;4868817;29;20064;-83
2022/06/24 04:18:47;;;;;;;15.63;14.02;;;;;;;20.18;83.83;100669.19;4880515;29;20051;-83
2022/06/24 04:21:15;;;;;;;17.00;13.50;;;;;;;20.10;84.61;100656.50;4867928;29;20280;-83
2022/06/24 04:23:41;;;;;;;14.05;12.55;;;;;;;20.04;85.17;100649.91;4898791;29;20032;-83
2022/06/24 04:26:07;;;;;;;14.38;12.85;;;;;;;19.99;85.14;100654.75;4887023;29;20053;-83
2022/06/24 04:28:32;;;;;;;12.55;10.50;;;;;;;19.99;85.40;100661.88;4877330;29;20116;-83
2022/06/24 04:30:58;;;;;;;15.38;10.38;;;;;;;19.99;85.13;100669.84;4882474;29;20347;-83
2022/06/24 04:33:23;;;;;;;11.45;10.07;;;;;;;20.00;85.10;100675.06;4899000;29;20307;-83
2022/06/24 04:35:48;;;;;;;10.77;9.77;;;;;;;20.02;84.68;100672.28;4900148;29;20044;-83
2022/06/24 04:38:14;;;;;;;12.18;9.48;;;;;;;20.04;84.35;100670.31;4881343;29;20261;-83
2022/06/24 04:40:40;;;;;;;11.13;10.02;;;;;;;20.05;84.15;100670.19;4873677;29;20228;-83
2022/06/24 04:43:05;;;;;;;11.57;10.43;;;;;;;20.06;84.15;100663.91;4863893;29;20037;-83
2022/06/24 04:45:31;;;;;;;11.15;10.05;;;;;;;20.08;83.77;100661.13;4849155;29;20112;-83
2022/06/24 04:47:56;;;;;;;12.65;9.90;;;;;;;20.08;83.49;100651.34;4878283;29;20047;-83
2022/06/24 04:50:22;;;;;;;12.65;11.35;;;;;;;20.09;83.54;100652.19;4849968;29;20116;-83
2022/06/24 04:52:48;;;;;;;11.90;10.50;;;;;;;20.09;83.11;100646.88;4873600;29;20088;-83
2022/06/24 04:55:13;;;;;;;10.30;9.30;;;;;;;20.09;82.59;100653.00;4864590;29;20375;-83
2022/06/24 04:57:39;;;;;;;9.93;8.70;;;;;;;20.08;81.06;100646.03;4883780;29;20281;-83
2022/06/24 05:00:05;;;;;;;11.20;9.48;;;;;;;20.09;80.68;100657.50;4880278;29;20089;-83
2022/06/24 05:02:31;;;;;;;11.57;10.45;;;;;;;20.10;80.82;100661.81;4888354;29;20251;-83
2022/06/24 05:04:56;;;;;;;12.02;10.70;;;;;;;20.11;81.33;100667.03;4887903;29;20041;-83
2022/06/24 05:07:21;;;;;;;13.68;11.32;;;;;;;20.11;81.31;100664.38;4863947;29;20041;-83
2022/06/24 05:09:47;;;;;;;11.85;10.73;;;;;;;20.12;81.66;100654.59;4864143;29;20045;-83
2022/06/24 05:12:12;;;;;;;15.25;12.65;;;;;;;20.12;81.85;100651.94;4873200;29;20119;-83
2022/06/24 05:14:38;;;;;;;13.13;11.80;;;;;;;20.11;82.06;100648.41;4880267;29;20045;-83
2022/06/24 05:17:03;;;;;;;14.05;12.57;;;;;;;20.11;82.42;100659.03;4880567;29;20049;-83
2022/06/24 05:19:29;;;;;;;13.35;11.45;;;;;;;20.10;82.40;100668.00;4864985;29;20029;-83
2022/06/24 05:21:54;;;;;;;13.48;11.82;;;;;;;20.10;82.46;100668.00;4861277;29;20040;-83
2022/06/24 05:24:20;;;;;;;14.75;12.82;;;;;;;20.10;82.58;100664.47;4863814;29;20045;-83
2022/06/24 05:26:46;;;;;;;15.80;13.02;;;;;;;20.10;82.80;100664.47;4874290;29;20069;-83
2022/06/24 05:29:12;;;;;;;15.60;12.82;;;;;;;20.09;82.97;100668.97;4876060;29;20064;-83
2022/06/24 05:31:38;;;;;;;15.13;13.52;;;;;;;20.08;83.08;100664.63;4880283;29;20033;-83
2022/06/24 05:34:03;;;;;;;17.63;14.75;;;;;;;20.09;83.00;100665.47;4879080;29;20039;-83
2022/06/24 05:36:29;;;;;;;16.77;14.15;;;;;;;20.08;82.92;100671.75;4858968;29;20359;-83
2022/06/24 05:38:55;;;;;;;15.38;13.30;;;;;;;20.07;82.92;100676.22;4859862;29;20041;-83
2022/06/24 05:41:20;;;;;;;22.38;15.18;;;;;;;20.07;82.33;100678.88;4875610;29;20041;-83
2022/06/24 05:43:46;;;;;;;21.92;16.17;;;;;;;20.06;82.01;100687.81;4879459;29;20548;-83
2022/06/24 05:46:12;;;;;;;16.63;14.27;;;;;;;20.07;81.41;100683.38;4878937;29;20060;-83
2022/06/24 05:48:38;;;;;;;16.48;14.40;;;;;;;20.05;80.21;100683.50;4877847;29;20404;-83
2022/06/24 05:51:15;;;;;;;21.23;15.05;;;;;;;20.06;80.47;100690.47;4862493;29;20040;-83
2022/06/24 05:56:27;;;;;;;15.98;12.73;;;;;;;20.05;79.75;100682.66;4877956;29;20088;-83
2022/06/24 05:58:52;;;;;;;13.50;11.88;;;;;;;20.04;79.18;100691.59;4862683;29;20386;-83
2022/06/24 06:01:18;;;;;;;14.98;12.38;;;;;;;20.02;78.66;100693.53;4862759;29;20363;-84
2022/06/24 06:03:44;;;;;;;15.45;11.13;;;;;;;20.01;78.78;100691.84;4876539;29;20221;-83
2022/06/24 06:06:10;;;;;;;15.52;12.65;;;;;;;20.01;79.29;100686.53;4877318;29;20404;-83
2022/06/24 06:08:36;;;;;;;16.35;12.35;;;;;;;20.01;80.18;100686.53;4860806;29;20065;-83
2022/06/24 06:11:13;;;;;;;15.77;12.82;;;;;;;19.99;80.22;100683.16;4878317;29;20065;-83
2022/06/24 06:13:43;;;;;;;12.00;10.80;;;;;;;19.98;79.62;100686.78;4880144;29;20021;-83
2022/06/24 06:16:09;;;;;;;13.60;10.00;;;;;;;19.97;79.24;100688.59;4876175;29;20049;-83
2022/06/24 06:18:35;;;;;;;11.68;10.48;;;;;;;19.97;79.15;100685.09;4890991;29;20122;-83
2022/06/24 06:21:06;;;;;;;13.13;10.23;;;;;;;19.95;79.66;100698.50;4876339;29;20269;-83
2022/06/24 06:23:31;;;;;;;10.95;9.85;;;;;;;19.95;80.52;100693.19;4880026;29;20051;-83
2022/06/24 06:25:58;;;;;;;12.02;10.50;;;;;;;19.94;80.86;100699.50;4867212;29;20104;-83
2022/06/24 06:28:24;;;;;;;12.18;10.00;;;;;;;19.92;80.79;100696.97;4876971;29;20033;-83
2022/06/24 06:30:51;;;;;;;13.02;9.77;;;;;;;19.91;80.81;100703.22;4890778;29;20121;-83
2022/06/24 06:33:17;;;;;;;10.80;9.57;;;;;;;19.91;81.09;100697.06;4854524;29;20436;-83
2022/06/24 06:35:44;;;;;;;9.68;8.77;;;;;;;19.91;81.42;100694.41;4886005;29;20037;-83
2022/06/24 06:38:09;;;;;;;10.70;9.70;;;;;;;19.90;81.45;100701.56;4849841;29;20275;-83
2022/06/24 06:40:39;;;;;;;11.70;9.07;;;;;;;19.89;81.76;100699.03;4861183;29;20048;-83
2022/06/24 06:43:06;;;;;;;8.90;8.10;;;;;;;19.87;81.60;100696.47;4857319;29;20209;-83
2022/06/24 06:45:33;;;;;;;11.55;8.65;;;;;;;19.87;80.98;100693.81;4867187;29;20045;-83
2022/06/24 06:47:58;;;;;;;10.18;7.72;;;;;;;19.88;81.04;100699.97;4869900;29;20045;-83
2022/06/24 06:50:24;;;;;;;9.73;8.57;;;;;;;19.86;81.03;100696.59;4884064;29;20029;-83
2022/06/24 06:52:50;;;;;;;9.82;8.90;;;;;;;19.87;81.16;100715.09;4877648;29;20104;-83
2022/06/24 06:55:15;;;;;;;9.68;8.73;;;;;;;19.88;81.37;100713.25;4868154;29;20041;-83
2022/06/24 06:57:41;;;;;;;12.93;8.68;;;;;;;19.89;81.72;100717.63;4882253;29;20417;-83
2022/06/24 07:00:09;;;;;;;10.63;9.25;;;;;;;19.89;81.97;100715.81;4878169;29;20057;-83
2022/06/24 07:02:35;;;;;;;9.95;8.60;;;;;;;19.89;82.19;100713.16;4877811;29;20316;-83
2022/06/24 07:05:03;;;;;;;8.65;7.85;;;;;;;19.90;82.09;100720.16;4865277;29;20099;-83
2022/06/24 07:07:28;;;;;;;6.67;6.07;;;;;;;19.89;82.08;100721.13;4865762;29;20053;-83
2022/06/24 07:09:54;;;;;;;6.93;6.32;;;;;;;19.90;81.92;100724.59;4877926;29;20112;-83
2022/06/24 07:12:20;;;;;;;7.65;5.53;;;;;;;19.88;81.36;100724.75;4850796;29;20045;-85
2022/06/24 07:14:46;;;;;;;5.43;4.93;;;;;;;19.87;80.65;100720.41;4876115;29;20071;-84
2022/06/24 07:17:11;;;;;;;6.47;5.55;;;;;;;19.89;80.50;100722.94;4871567;29;20415;-84
2022/06/24 07:19:37;;;;;;;5.28;4.88;;;;;;;19.88;81.08;100722.09;4881241;29;20101;-84
2022/06/24 07:22:03;;;;;;;4.88;4.43;;;;;;;19.87;80.93;100719.56;4864450;29;20033;-84
2022/06/24 07:24:28;;;;;;;5.75;5.25;;;;;;;19.86;80.95;100715.22;4862819;29;20048;-84
2022/06/24 07:26:54;;;;;;;5.20;4.75;;;;;;;19.85;80.79;100708.22;4879101;29;20049;-84
2022/06/24 07:29:19;;;;;;;5.72;5.22;;;;;;;19.85;80.71;100709.06;4866648;29;20366;-83
2022/06/24 07:31:47;;;;;;;7.85;5.43;;;;;;;19.85;80.39;100701.09;4879162;29;20044;-84
2022/06/24 07:34:17;;;;;;;5.82;5.22;;;;;;;19.85;80.71;100695.78;4863884;29;20044;-84
2022/06/24 07:36:42;;;;;;;9.48;6.22;;;;;;;19.85;80.27;100701.09;4864765;29;20091;-83
2022/06/24 07:39:09;;;;;;;7.63;6.90;;;;;;;19.86;81.19;100699.25;4881519;29;20359;-83
2022/06/24 07:41:34;;;;;;;8.65;7.38;;;;;;;19.86;80.81;100704.56;4877419;29;20340;-84
2022/06/24 07:44:00;;;;;;;9.40;7.63;;;;;;;19.85;80.44;100703.75;4879453;29;20103;-83
2022/06/24 07:46:26;;;;;;;12.90;9.15;;;;;;;19.85;81.01;100701.09;4865361;29;20051;-84
2022/06/24 07:48:52;;;;;;;13.43;8.02;;;;;;;19.86;81.39;100708.06;4869449;29;20064;-83
2022/06/24 07:51:17;;;;;;;10.02;8.77;;;;;;;19.86;81.65;100709.91;4865064;29;20268;-84
2022/06/24 07:53:44;;;;;;;9.60;8.68;;;;;;;19.86;81.15;100708.06;4854222;29;20047;-84
2022/06/24 07:58:54;;;;;;;8.38;7.60;;;;;;;19.87;80.53;100696.47;4876173;29;20089;-83
2022/06/24 08:01:19;;;;;;;8.68;7.88;;;;;;;19.88;80.33;100697.31;4847879;29;20040;-84
2022/06/24 08:03:45;;;;;;;10.50;8.27;;;;;;;19.87;80.43;100704.44;4861900;29;20057;-83
2022/06/24 08:06:11;;;;;;;11.30;8.27;;;;;;;19.88;79.50;100702.63;4877396;29;20033;-84
2022/06/24 08:08:37;;;;;;;12.73;8.95;;;;;;;19.88;79.36;100705.28;4847934;29;20049;-84
2022/06/24 08:11:02;;;;;;;8.52;7.72;;;;;;;19.89;79.67;100704.34;4881215;29;20347;-83
2022/06/24 08:13:30;;;;;;;9.68;8.68;;;;;;;19.90;80.18;100704.22;4870811;29;20135;-83
2022/06/24 08:15:55;;;;;;;9.93;8.93;;;;;;;19.91;80.46;100710.38;4847724;29;20045;-84
2022/06/24 08:18:21;;;;;;;8.63;7.45;;;;;;;19.92;80.46;100701.44;4880253;29;20124;-84
2022/06/24 08:20:47;;;;;;;10.63;7.97;;;;;;;19.94;79.75;100707.47;4864770;29;20045;-84
2022/06/24 08:23:12;;;;;;;8.80;8.00;;;;;;;19.94;79.06;100700.31;4876744;29;20227;-83
2022/06/24 08:25:37;;;;;;;9.45;8.50;;;;;;;19.94;78.47;100702.97;4872200;29;20328;-84
2022/06/24 08:28:03;;;;;;;12.00;9.48;;;;;;;19.96;77.72;100699.38;4882139;29;20048;-84
2022/06/24 08:30:29;;;;;;;11.38;10.23;;;;;;;19.96;78.45;100692.22;4857713;29;20042;-84
2022/06/24 08:32:54;;;;;;;12.25;9.38;;;;;;;19.97;78.76;100691.25;4880762;29;20302;-84
2022/06/24 08:35:19;;;;;;;12.75;11.32;;;;;;;19.97;78.72;100693.06;4880407;29;20104;-84
2022/06/24 08:37:45;;;;;;;12.18;10.95;;;;;;;19.97;78.32;100693.06;4879826;29;20049;-85
2022/06/24 08:40:11;;;;;;;18.58;11.55;;;;;;;19.95;78.17;100693.19;4888124;29;20071;-83
2022/06/24 08:42:38;;;;;;;18.77;14.13;;;;;;;19.94;78.58;100689.69;4858793;29;20368;-84
2022/06/24 08:45:04;;;;;;;21.88;13.88;;;;;;;19.91;78.39;100695.25;4884358;29;20096;-84
2022/06/24 08:47:30;;;;;;;15.30;12.15;;;;;;;19.91;78.38;100686.44;4881986;29;20041;-84
2022/06/24 08:49:56;;;;;;;14.02;10.88;;;;;;;19.91;78.18;100686.44;4887385;29;20253;-84
2022/06/24 08:52:21;;;;;;;17.00;12.98;;;;;;;19.90;78.20;100696.25;4879840;29;20049;-84
2022/06/24 08:54:49;;;;;;;13.45;10.57;;;;;;;19.91;77.86;100683.78;4881152;29;20231;-84
2022/06/24 08:57:14;;;;;;;13.65;10.85;;;;;;;19.92;78.71;100688.97;4878464;29;20108;-84
2022/06/24 08:59:42;;;;;;;13.90;11.52;;;;;;;19.93;79.00;100689.81;4873259;29;20049;-84
2022/06/24 09:02:12;;;;;;;13.35;10.35;;;;;;;19.94;78.09;100696.84;4880781;29;20036;-84
2022/06/24 09:04:42;;;;;;;18.08;10.82;;;;;;;19.92;78.16;100688.97;4879287;29;20504;-84
2022/06/24 09:07:07;;;;;;;11.90;10.27;;;;;;;19.94;78.15;100688.84;4879075;29;20401;-84
2022/06/24 09:09:32;;;;;;;13.98;10.90;;;;;;;19.96;78.29;100686.09;4853412;29;20677;-84
2022/06/24 09:12:01;;;;;;;12.50;10.23;;;;;;;19.97;77.91;100685.09;4842861;29;20071;-84
2022/06/24 09:14:44;;;;;;;10.00;8.98;;;;;;;19.98;77.43;100684.97;4876659;29;20579;-84
2022/06/24 09:17:11;;;;;;;10.15;9.10;;;;;;;20.00;77.12;100682.19;4879365;29;20053;-84
2022/06/24 09:19:37;;;;;;;14.68;9.63;;;;;;;20.00;77.18;100685.69;4869851;29;20432;-84
2022/06/24 09:22:02;;;;;;;19.23;14.35;;;;;;;20.00;77.09;100687.50;4874744;29;20064;-84
2022/06/24 09:24:45;;;;;;;15.95;13.07;;;;;;;20.02;77.70;100680.25;4877277;29;20060;-84
2022/06/24 09:27:11;;;;;;;28.02;16.40;;;;;;;20.03;78.07;100684.56;4875313;29;20052;-84
2022/06/24 09:29:36;;;;;;;19.73;16.00;;;;;;;20.04;78.47;100694.25;4879732;29;20051;-84
2022/06/24 09:32:05;;;;;;;20.65;13.90;;;;;;;20.05;78.90;100687.97;4846458;29;20072;-84
2022/06/24 09:34:30;;;;;;;14.55;12.48;;;;;;;20.05;77.38;100685.31;4889047;29;20040;-84
2022/06/24 09:36:55;;;;;;;14.55;11.75;;;;;;;20.05;77.05;100685.31;4879431;29;20041;-84
2022/06/24 09:39:22;;;;;;;11.73;9.32;;;;;;;20.05;76.71;100683.50;4884490;29;20055;-84
2022/06/24 09:41:55;;;;;;;13.38;10.63;;;;;;;20.06;76.86;100690.47;4877852;29;20037;-84
2022/06/24 09:44:21;;;;;;;11.88;10.45;;;;;;;20.08;76.90;100685.91;4884291;29;20133;-84
2022/06/24 09:47:00;;;;;;;17.35;10.57;;;;;;;20.10;77.30;100672.47;4879104;29;20338;-84
2022/06/24 09:49:25;;;;;;;;;;;;;;;20.10;77.42;100683.97;4884505;29;20045;-84
2022/06/24 09:51:51;;;;;;;10.63;9.52;;;;;;;20.11;76.77;100680.31;4867585;29;20486;-84
2022/06/24 09:54:18;;;;;;;15.60;11.13;;;;;;;20.14;76.54;100668.59;4858010;29;20348;-84
2022/06/24 09:56:46;;;;;;;12.95;11.30;;;;;;;20.15;76.52;100680.91;4862781;29;20093;-84
2022/06/24 10:01:59;;;;;;;16.45;12.35;;;;;;;20.17;77.35;100680.78;4879396;29;20065;-84
2022/06/24 10:04:26;;;;;;;14.80;12.18;;;;;;;20.18;77.28;100685.13;4864485;29;20150;-84
2022/06/24 10:06:52;;;;;;;16.80;13.02;;;;;;;20.17;77.12;100688.75;4860136;29;20343;-84
2022/06/24 10:09:24;;;;;;;15.13;12.65;;;;;;;20.17;76.86;100686.94;4862777;29;20021;-84
2022/06/24 10:11:50;;;;;;;18.30;14.13;;;;;;;20.14;76.68;100682.72;4874576;29;20036;-84
2022/06/24 10:14:15;;;;;;;15.63;13.25;;;;;;;20.14;76.60;100682.72;4854966;29;20076;-84
2022/06/24 10:16:42;;;;;;;18.30;12.98;;;;;;;20.14;76.57;100677.41;4875525;29;20328;-84
2022/06/24 10:19:10;;;;;;;16.90;13.52;;;;;;;20.13;76.62;100686.34;4878264;29;20053;-84
2022/06/24 10:21:37;;;;;;;16.40;12.57;;;;;;;20.11;76.62;100684.78;4874882;29;20047;-84
2022/06/24 10:24:13;;;;;;;12.77;9.23;;;;;;;20.10;76.13;100691.06;4874678;29;20093;-83
2022/06/24 10:26:41;;;;;;;11.05;8.40;;;;;;;20.09;75.65;100684.06;4861642;29;20273;-84
2022/06/24 10:29:06;;;;;;;9.80;8.63;;;;;;;20.09;76.03;100689.41;4872641;29;20135;-84
2022/06/24 10:31:52;;;;;;;9.93;8.48;;;;;;;20.08;75.83;100685.91;4892210;29;20293;-84
2022/06/24 10:34:29;;;;;;;9.35;7.60;;;;;;;20.08;75.66;100691.22;4872352;29;20056;-84
2022/06/24 10:37:07;;;;;;;13.57;8.73;;;;;;;20.10;76.08;100685.75;4883187;29;20043;-84
2022/06/24 10:39:43;;;;;;;9.98;7.43;;;;;;;20.10;75.89;100691.94;4863174;29;20444;-84
2022/06/24 10:42:14;;;;;;;7.35;6.30;;;;;;;20.11;75.96;100688.28;4878987;29;20371;-84
2022/06/24 10:44:55;;;;;;;7.25;6.63;;;;;;;20.12;75.89;100679.34;4873597;29;20044;-84
2022/06/24 10:47:28;;;;;;;6.80;6.20;;;;;;;20.15;75.42;100683.56;4881812;29;20100;-84
2022/06/24 10:50:00;;;;;;;6.85;5.60;;;;;;;20.16;75.25;100677.28;4857553;29;20058;-84
2022/06/24 10:52:55;;;;;;;5.43;5.00;;;;;;;20.18;75.11;100663.88;4881487;29;20490;-84
2022/06/24 10:55:21;;;;;;;7.03;5.10;;;;;;;20.19;75.45;100661.06;4877999;29;20033;-84
2022/06/24 10:57:49;;;;;;;6.35;5.72;;;;;;;20.19;75.46;100657.56;4876602;29;20348;-84
2022/06/24 11:00:24;;;;;;;5.82;4.65;;;;;;;20.19;75.07;100662.88;4858681;29;20101;-84
2022/06/24 11:02:53;;;;;;;4.93;4.53;;;;;;;20.19;74.93;100660.22;4881452;29;20037;-84
2022/06/24 11:05:30;;;;;;;4.07;3.78;;;;;;;20.17;74.70;100670.97;4877803;29;20029;-84
2022/06/24 11:07:55;;;;;;;4.13;3.53;;;;;;;20.16;74.39;100660.50;4881091;29;20043;-84
2022/06/24 11:10:23;;;;;;;4.32;3.22;;;;;;;20.17;74.46;100664.81;4882055;29;20072;-84
2022/06/24 11:12:54;;;;;;;3.25;3.03;;;;;;;20.16;74.55;100657.84;4881624;29;20036;-84
2022/06/24 11:15:33;;;;;;;3.47;3.17;;;;;;;20.15;74.76;100662.28;4865000;29;20037;-84
2022/06/24 11:18:04;;;;;;;;;;;;;;;20.15;74.80;100649.00;4880296;29;20360;-83
2022/06/24 11:20:29;;;;;;;3.72;3.10;;;;;;;20.14;75.01;100653.47;4880442;29;19911;-84
2022/06/24 11:22:54;;;;;;;2.90;2.70;;;;;;;20.13;74.72;100645.63;4854724;29;20241;-84
2022/06/24 11:25:20;;;;;;;3.85;3.42;;;;;;;20.12;74.93;100647.44;4845585;29;20356;-84
2022/06/24 11:27:46;;;;;;;3.88;3.47;;;;;;;20.13;75.17;100654.44;4853057;29;20066;-84
2022/06/24 11:30:11;;;;;;;4.70;4.30;;;;;;;20.14;76.04;100652.66;4878782;29;20041;-84